createdAt,value
2023-01-17T00:00:35.015Z,3.58
2023-01-17T00:03:01.695Z,3.57
2023-01-17T00:05:46.900Z,3.57
2023-01-17T00:08:32.235Z,3.55
2023-01-17T00:10:59.179Z,3.56
2023-01-17T00:13:25.758Z,3.57
2023-01-17T00:15:53.122Z,3.60
2023-01-17T00:18:19.804Z,3.62
2023-01-17T00:21:04.781Z,3.66
2023-01-17T00:23:50.152Z,3.66
2023-01-17T00:26:19.671Z,3.70
2023-01-17T00:28:47.021Z,3.72
2023-01-17T00:31:15.190Z,3.72
2023-01-17T00:33:41.969Z,3.73
2023-01-17T00:36:09.570Z,3.76
2023-01-17T00:38:37.908Z,3.76
2023-01-17T00:41:07.155Z,3.74
2023-01-17T00:43:52.691Z,3.77
2023-01-17T00:46:39.148Z,3.80
2023-01-17T00:49:25.035Z,3.81
2023-01-17T00:52:10.409Z,3.83
2023-01-17T00:54:55.660Z,3.85
2023-01-17T00:57:40.975Z,3.85
2023-01-17T01:00:27.351Z,3.84
2023-01-17T01:03:12.298Z,3.86
2023-01-17T01:05:57.591Z,3.86
2023-01-17T01:08:44.788Z,3.87
2023-01-17T01:11:32.619Z,3.89
2023-01-17T01:14:18.660Z,3.91
2023-01-17T01:17:04.173Z,3.92
2023-01-17T01:19:49.678Z,3.92
2023-01-17T01:22:34.665Z,3.91
2023-01-17T01:25:20.096Z,3.90
2023-01-17T01:28:05.411Z,3.91
2023-01-17T01:30:50.820Z,3.92
2023-01-17T01:33:20.576Z,3.92
2023-01-17T01:35:55.227Z,3.92
2023-01-17T01:38:24.266Z,3.91
2023-01-17T01:40:54.089Z,3.89
2023-01-17T01:43:39.631Z,3.91
2023-01-17T01:46:07.033Z,3.93
2023-01-17T01:48:33.724Z,3.90
2023-01-17T01:51:03.763Z,3.93
2023-01-17T01:53:34.379Z,3.92
2023-01-17T01:56:01.578Z,3.91
2023-01-17T01:58:33.449Z,3.90
2023-01-17T02:01:00.262Z,3.89
2023-01-17T02:03:31.134Z,3.89
2023-01-17T02:06:04.186Z,3.92
2023-01-17T02:08:31.437Z,3.93
2023-01-17T02:10:58.515Z,3.93
2023-01-17T02:13:25.215Z,3.94
2023-01-17T02:16:03.058Z,3.96
2023-01-17T02:18:47.653Z,3.96
2023-01-17T02:21:23.212Z,3.95
2023-01-17T02:23:58.612Z,3.95
2023-01-17T02:26:25.119Z,3.92
2023-01-17T02:29:17.618Z,3.89
2023-01-17T02:31:54.477Z,3.89
2023-01-17T02:34:31.757Z,3.86
2023-01-17T02:37:06.288Z,3.85
2023-01-17T02:39:49.155Z,3.83
2023-01-17T02:42:20.525Z,3.84
2023-01-17T02:44:47.119Z,3.86
2023-01-17T02:47:24.232Z,3.86
2023-01-17T02:49:54.526Z,3.86
2023-01-17T02:52:45.289Z,3.85
2023-01-17T02:55:30.765Z,3.86
2023-01-17T02:58:09.455Z,3.85
2023-01-17T03:00:47.926Z,3.86
2023-01-17T03:03:21.176Z,3.87
2023-01-17T03:06:11.583Z,3.88
2023-01-17T03:08:47.763Z,3.89
2023-01-17T03:11:14.904Z,3.88
2023-01-17T03:13:42.269Z,3.93
2023-01-17T03:16:15.041Z,3.95
2023-01-17T03:18:42.085Z,3.96
2023-01-17T03:21:08.643Z,3.97
2023-01-17T03:23:35.248Z,3.97
2023-01-17T03:26:01.832Z,3.99
2023-01-17T03:28:29.863Z,3.99
2023-01-17T03:30:56.577Z,4.00
2023-01-17T03:33:24.336Z,4.00
2023-01-17T03:35:50.964Z,4.03
2023-01-17T03:38:17.610Z,4.04
2023-01-17T03:40:44.241Z,4.05
2023-01-17T03:43:10.938Z,4.05
2023-01-17T03:45:37.746Z,4.06
2023-01-17T03:48:04.611Z,4.06
2023-01-17T03:50:31.162Z,4.08
2023-01-17T03:52:57.816Z,4.08
2023-01-17T03:55:24.498Z,4.10
2023-01-17T03:57:51.246Z,4.11
2023-01-17T04:00:18.350Z,4.12
2023-01-17T04:02:44.958Z,4.12
2023-01-17T04:05:11.636Z,4.10
2023-01-17T04:07:38.176Z,4.10
2023-01-17T04:10:05.345Z,4.11
2023-01-17T04:12:31.886Z,4.13
2023-01-17T04:14:58.524Z,4.11
2023-01-17T04:17:25.119Z,4.12
2023-01-17T04:19:51.908Z,4.13
2023-01-17T04:22:18.435Z,4.16
2023-01-17T04:24:45.040Z,4.16
2023-01-17T04:27:14.328Z,4.16
2023-01-17T04:29:41.101Z,4.15
2023-01-17T04:32:07.822Z,4.17
2023-01-17T04:34:34.474Z,4.19
2023-01-17T04:37:01.064Z,4.21
2023-01-17T04:39:27.735Z,4.21
2023-01-17T04:41:54.310Z,4.22
2023-01-17T04:44:20.854Z,4.20
2023-01-17T04:46:47.402Z,4.22
2023-01-17T04:49:14.063Z,4.21
2023-01-17T04:51:40.658Z,4.18
2023-01-17T04:54:07.237Z,4.18
2023-01-17T04:56:33.800Z,4.17
2023-01-17T04:59:00.381Z,4.17
2023-01-17T05:01:27.376Z,4.20
2023-01-17T05:03:54.163Z,4.23
2023-01-17T05:06:20.810Z,4.24
2023-01-17T05:08:47.400Z,4.28
2023-01-17T05:11:14.088Z,4.26
2023-01-17T05:13:40.662Z,4.30
2023-01-17T05:16:07.475Z,4.34
2023-01-17T05:18:34.077Z,4.32
2023-01-17T05:21:04.299Z,4.30
2023-01-17T05:23:30.945Z,4.30
2023-01-17T05:25:57.539Z,4.30
2023-01-17T05:28:24.297Z,4.28
2023-01-17T05:30:50.948Z,4.27
2023-01-17T05:33:17.594Z,4.26
2023-01-17T05:35:44.114Z,4.25
2023-01-17T05:38:10.667Z,4.26
2023-01-17T05:40:37.249Z,4.27
2023-01-17T05:43:04.165Z,4.28
2023-01-17T05:45:32.733Z,4.29
2023-01-17T05:47:59.585Z,4.32
2023-01-17T05:50:30.046Z,4.36
2023-01-17T05:52:59.314Z,4.38
2023-01-17T05:55:27.229Z,4.38
2023-01-17T05:57:54.598Z,4.41
2023-01-17T06:00:22.211Z,4.53
2023-01-17T06:02:49.525Z,4.56
2023-01-17T06:05:16.717Z,4.69
2023-01-17T06:07:47.399Z,4.69
2023-01-17T06:10:15.571Z,4.71
2023-01-17T06:12:44.704Z,4.81
2023-01-17T06:15:12.698Z,4.80
2023-01-17T06:17:39.513Z,4.76
2023-01-17T06:20:08.781Z,4.73
2023-01-17T06:22:35.855Z,4.76
2023-01-17T06:25:02.486Z,4.79
2023-01-17T06:27:29.366Z,4.78
2023-01-17T06:29:55.887Z,4.75
2023-01-17T06:32:22.470Z,4.72
2023-01-17T06:34:49.021Z,4.74
2023-01-17T06:37:15.603Z,4.73
2023-01-17T06:39:42.307Z,4.67
2023-01-17T06:42:08.970Z,4.66
2023-01-17T06:44:35.522Z,4.63
2023-01-17T06:47:02.200Z,4.62
2023-01-17T06:49:28.910Z,4.57
2023-01-17T06:51:55.503Z,4.44
2023-01-17T06:54:22.059Z,4.32
2023-01-17T06:56:48.667Z,4.23
2023-01-17T06:59:15.266Z,4.19
2023-01-17T07:01:41.985Z,4.12
2023-01-17T07:04:08.730Z,4.10
2023-01-17T07:06:36.510Z,4.05
2023-01-17T07:09:04.236Z,4.06
2023-01-17T07:11:31.676Z,4.01
2023-01-17T07:13:58.253Z,3.98
2023-01-17T07:16:24.942Z,3.97
2023-01-17T07:18:51.842Z,3.97
2023-01-17T07:21:18.664Z,3.92
2023-01-17T07:23:45.382Z,3.92
2023-01-17T07:26:12.061Z,3.90
2023-01-17T07:28:38.672Z,3.86
2023-01-17T07:31:08.000Z,3.84
2023-01-17T07:33:35.388Z,3.80
2023-01-17T07:36:09.445Z,3.79
2023-01-17T07:38:36.229Z,3.80
2023-01-17T07:41:05.176Z,3.77
2023-01-17T07:43:31.887Z,3.73
2023-01-17T07:46:00.810Z,3.74
2023-01-17T07:48:28.613Z,3.67
2023-01-17T07:50:56.873Z,3.66
2023-01-17T07:53:27.813Z,3.60
2023-01-17T07:55:54.584Z,3.58
2023-01-17T07:58:21.684Z,3.53
2023-01-17T08:00:48.429Z,3.46
2023-01-17T08:03:17.360Z,3.44
2023-01-17T08:05:53.575Z,3.43
2023-01-17T08:08:20.313Z,3.48
2023-01-17T08:10:47.193Z,3.47
2023-01-17T08:13:13.756Z,3.49
2023-01-17T08:15:40.309Z,3.54
2023-01-17T08:18:06.881Z,3.75
2023-01-17T08:20:33.493Z,3.90
2023-01-17T08:23:00.055Z,4.17
2023-01-17T08:25:27.194Z,4.51
2023-01-17T08:27:58.017Z,4.70
2023-01-17T08:30:25.414Z,4.66
2023-01-17T08:32:51.989Z,4.64
2023-01-17T08:35:20.141Z,4.76
2023-01-17T08:37:47.631Z,5.21
2023-01-17T08:40:17.161Z,5.60
2023-01-17T08:42:44.254Z,6.09
2023-01-17T08:45:12.036Z,6.20
2023-01-17T08:47:38.758Z,6.72
2023-01-17T08:50:06.788Z,7.15
2023-01-17T08:52:33.894Z,7.65
2023-01-17T08:55:00.570Z,7.86
2023-01-17T08:57:27.443Z,8.01
2023-01-17T08:59:54.035Z,8.07
2023-01-17T09:02:20.831Z,8.81
2023-01-17T09:04:48.944Z,9.26
2023-01-17T09:07:18.246Z,9.57
2023-01-17T09:09:44.938Z,9.80
2023-01-17T09:12:12.019Z,10.16
2023-01-17T09:14:38.652Z,10.40
2023-01-17T09:17:07.057Z,10.56
2023-01-17T09:19:35.438Z,10.67
2023-01-17T09:22:04.220Z,10.80
2023-01-17T09:24:31.172Z,11.24
2023-01-17T09:26:57.743Z,11.81
2023-01-17T09:29:24.465Z,12.06
2023-01-17T09:31:51.068Z,12.53
2023-01-17T09:34:18.640Z,12.46
2023-01-17T09:36:45.322Z,12.84
2023-01-17T09:39:12.083Z,13.51
2023-01-17T09:42:03.339Z,13.81
2023-01-17T09:44:41.277Z,14.47
2023-01-17T09:47:18.594Z,14.01
2023-01-17T09:49:47.611Z,14.25
2023-01-17T09:52:18.659Z,14.68
2023-01-17T09:54:48.024Z,15.34
2023-01-17T09:57:41.118Z,14.72
2023-01-17T10:00:35.773Z,15.28
2023-01-17T10:03:18.123Z,15.46
2023-01-17T10:05:56.649Z,15.53
2023-01-17T10:08:57.061Z,16.07
2023-01-17T10:11:55.477Z,15.29
2023-01-17T10:14:42.171Z,15.19
2023-01-17T10:17:20.976Z,15.26
2023-01-17T10:20:06.046Z,15.37
2023-01-17T10:22:51.257Z,15.62
2023-01-17T10:25:39.451Z,15.94
2023-01-17T10:28:18.924Z,16.63
2023-01-17T10:30:50.892Z,16.74
2023-01-17T10:33:20.493Z,16.66
2023-01-17T10:35:57.498Z,16.32
2023-01-17T10:38:31.720Z,16.48
2023-01-17T10:41:29.883Z,16.91
2023-01-17T10:44:18.568Z,16.87
2023-01-17T10:47:08.659Z,17.12
2023-01-17T10:49:38.958Z,17.52
2023-01-17T10:52:17.428Z,17.21
2023-01-17T10:54:53.197Z,17.96
2023-01-17T10:57:24.964Z,19.09
2023-01-17T10:59:53.694Z,18.82
2023-01-17T11:02:28.148Z,19.23
2023-01-17T11:04:57.323Z,19.87
2023-01-17T11:07:28.683Z,19.75
2023-01-17T11:09:57.507Z,19.61
2023-01-17T11:12:33.633Z,20.10
2023-01-17T11:15:09.047Z,20.74
2023-01-17T11:17:38.030Z,20.33
2023-01-17T11:20:13.965Z,19.91
2023-01-17T11:22:47.345Z,19.06
2023-01-17T11:25:22.410Z,19.22
2023-01-17T11:28:04.927Z,19.54
2023-01-17T11:30:31.620Z,19.44
2023-01-17T11:33:00.412Z,19.22
2023-01-17T11:35:31.406Z,19.25
2023-01-17T11:38:07.288Z,19.02
2023-01-17T11:40:44.109Z,19.98
2023-01-17T11:43:18.767Z,21.05
2023-01-17T11:45:47.388Z,20.88
2023-01-17T11:48:17.099Z,20.93
2023-01-17T11:51:04.695Z,21.49
2023-01-17T11:53:39.337Z,20.73
2023-01-17T11:56:10.440Z,20.96
2023-01-17T11:58:41.135Z,20.06
2023-01-17T12:01:16.853Z,21.01
2023-01-17T12:04:08.191Z,21.32
2023-01-17T12:06:51.592Z,20.74
2023-01-17T12:09:46.248Z,20.47
2023-01-17T12:13:08.533Z,20.02
2023-01-17T12:15:51.969Z,20.16
2023-01-17T12:18:44.592Z,20.88
2023-01-17T12:21:25.267Z,20.74
2023-01-17T12:24:02.295Z,19.73
2023-01-17T12:26:37.912Z,18.90
2023-01-17T12:29:29.219Z,18.31
2023-01-17T12:32:10.664Z,17.37
2023-01-17T12:34:54.243Z,16.46
2023-01-17T12:37:20.803Z,16.15
2023-01-17T12:39:57.163Z,15.96
2023-01-17T12:42:32.330Z,16.09
2023-01-17T12:45:07.548Z,15.70
2023-01-17T12:47:42.817Z,15.57
2023-01-17T12:50:24.943Z,15.46
2023-01-17T12:53:07.203Z,14.57
2023-01-17T12:55:40.663Z,14.30
2023-01-17T12:58:15.920Z,14.14
2023-01-17T13:00:45.277Z,13.81
2023-01-17T13:03:46.344Z,13.47
2023-01-17T13:06:25.005Z,12.98
2023-01-17T13:08:56.941Z,12.73
2023-01-17T13:11:30.980Z,12.52
2023-01-17T13:13:59.873Z,12.29
2023-01-17T13:16:35.234Z,12.22
2023-01-17T13:19:15.705Z,11.88
2023-01-17T13:21:42.552Z,11.56
2023-01-17T13:24:21.272Z,11.25
2023-01-17T13:27:05.470Z,11.00
2023-01-17T13:29:43.959Z,10.63
2023-01-17T13:32:28.363Z,10.38
2023-01-17T13:35:10.337Z,10.21
2023-01-17T13:37:39.607Z,10.05
2023-01-17T13:40:18.318Z,10.08
2023-01-17T13:42:56.098Z,10.05
2023-01-17T13:45:37.646Z,9.92
2023-01-17T13:48:14.651Z,9.79
2023-01-17T13:50:41.216Z,9.65
2023-01-17T13:53:28.943Z,9.55
2023-01-17T13:56:18.476Z,9.37
2023-01-17T13:59:08.237Z,9.36
2023-01-17T14:01:38.464Z,9.31
2023-01-17T14:04:09.429Z,9.20
2023-01-17T14:06:36.168Z,9.09
2023-01-17T14:09:12.723Z,8.97
2023-01-17T14:12:05.684Z,8.98
2023-01-17T14:14:46.344Z,9.01
2023-01-17T14:17:29.379Z,8.90
2023-01-17T14:20:01.804Z,8.81
2023-01-17T14:22:34.709Z,8.82
2023-01-17T14:25:10.027Z,8.81
2023-01-17T14:27:42.428Z,8.72
2023-01-17T14:30:18.197Z,8.66
2023-01-17T14:33:20.193Z,8.59
2023-01-17T14:35:57.911Z,8.50
2023-01-17T14:38:29.983Z,8.51
2023-01-17T14:41:07.849Z,8.45
2023-01-17T14:43:37.726Z,8.42
2023-01-17T14:46:08.154Z,8.38
2023-01-17T14:48:39.303Z,8.31
2023-01-17T14:51:13.045Z,8.25
2023-01-17T14:53:39.894Z,8.20
2023-01-17T14:56:17.120Z,8.06
2023-01-17T14:58:46.486Z,7.98
2023-01-17T15:01:18.002Z,7.93
2023-01-17T15:03:51.261Z,7.90
2023-01-17T15:06:34.448Z,7.88
2023-01-17T15:09:01.211Z,7.87
2023-01-17T15:11:31.457Z,7.76
2023-01-17T15:14:01.545Z,7.75
2023-01-17T15:16:34.095Z,7.73
2023-01-17T15:19:02.359Z,7.73
2023-01-17T15:21:33.104Z,7.70
2023-01-17T15:24:07.135Z,7.68
2023-01-17T15:26:35.956Z,7.63
2023-01-17T15:29:08.442Z,7.59
2023-01-17T15:31:42.911Z,7.56
2023-01-17T15:34:33.055Z,7.56
2023-01-17T15:37:10.823Z,7.52
2023-01-17T15:39:40.560Z,7.49
2023-01-17T15:42:19.745Z,7.45
2023-01-17T15:44:51.195Z,7.43
2023-01-17T15:47:33.437Z,7.43
2023-01-17T15:50:03.143Z,7.39
2023-01-17T15:52:29.908Z,7.33
2023-01-17T15:55:12.539Z,7.30
2023-01-17T15:57:39.762Z,7.28
2023-01-17T16:00:14.778Z,7.25
2023-01-17T16:02:43.105Z,7.24
2023-01-17T16:05:22.782Z,7.23
2023-01-17T16:07:53.328Z,7.22
2023-01-17T16:10:22.633Z,7.22
2023-01-17T16:12:52.864Z,7.20
2023-01-17T16:15:26.166Z,7.15
2023-01-17T16:17:57.575Z,7.16
2023-01-17T16:20:29.611Z,7.11
2023-01-17T16:22:56.251Z,7.09
2023-01-17T16:25:24.221Z,7.08
2023-01-17T16:27:52.155Z,7.07
2023-01-17T16:30:23.979Z,7.07
2023-01-17T16:32:51.160Z,7.04
2023-01-17T16:35:24.867Z,6.99
2023-01-17T16:38:02.251Z,6.98
2023-01-17T16:40:32.080Z,6.95
2023-01-17T16:43:00.010Z,6.95
2023-01-17T16:45:27.140Z,6.91
2023-01-17T16:47:54.800Z,6.88
2023-01-17T16:50:23.952Z,6.85
2023-01-17T16:52:51.640Z,6.81
2023-01-17T16:55:22.217Z,6.77
2023-01-17T16:57:50.281Z,6.77
2023-01-17T17:00:18.118Z,6.73
2023-01-17T17:02:44.768Z,6.74
2023-01-17T17:05:11.379Z,6.69
2023-01-17T17:07:46.252Z,6.65
2023-01-17T17:10:15.607Z,6.56
2023-01-17T17:12:42.583Z,6.53
2023-01-17T17:15:10.435Z,6.51
2023-01-17T17:17:38.819Z,6.48
2023-01-17T17:20:06.386Z,6.47
2023-01-17T17:22:33.353Z,6.41
2023-01-17T17:25:00.022Z,6.39
2023-01-17T17:27:27.935Z,6.37
2023-01-17T17:29:54.522Z,6.33
2023-01-17T17:32:21.725Z,6.28
2023-01-17T17:34:50.744Z,6.26
2023-01-17T17:37:17.576Z,6.24
2023-01-17T17:39:45.307Z,6.26
2023-01-17T17:42:12.676Z,6.25
2023-01-17T17:44:39.386Z,6.25
2023-01-17T17:47:05.998Z,6.25
2023-01-17T17:49:32.741Z,6.25
2023-01-17T17:52:07.031Z,6.24
2023-01-17T17:54:34.092Z,6.24
2023-01-17T17:57:00.860Z,6.27
2023-01-17T17:59:27.621Z,6.26
2023-01-17T18:01:54.245Z,6.23
2023-01-17T18:04:21.735Z,6.21
2023-01-17T18:06:48.470Z,6.21
2023-01-17T18:09:16.301Z,6.21
2023-01-17T18:11:43.877Z,6.20
2023-01-17T18:14:15.100Z,6.17
2023-01-17T18:16:43.968Z,6.16
2023-01-17T18:19:28.588Z,6.09
2023-01-17T18:21:55.421Z,6.08
2023-01-17T18:24:24.801Z,6.08
2023-01-17T18:26:53.522Z,6.08
2023-01-17T18:29:21.713Z,5.99
2023-01-17T18:31:50.110Z,5.97
2023-01-17T18:34:24.072Z,5.93
2023-01-17T18:36:51.919Z,5.91
2023-01-17T18:39:27.414Z,5.89
2023-01-17T18:41:55.230Z,5.87
2023-01-17T18:44:22.647Z,5.83
2023-01-17T18:46:51.061Z,5.82
2023-01-17T18:49:19.340Z,5.81
2023-01-17T18:51:50.323Z,5.78
2023-01-17T18:54:18.387Z,5.79
2023-01-17T18:56:45.148Z,5.74
2023-01-17T18:59:13.282Z,5.73
2023-01-17T19:01:43.530Z,5.70
2023-01-17T19:04:11.766Z,5.65
2023-01-17T19:06:41.035Z,5.63
2023-01-17T19:09:09.140Z,5.61
2023-01-17T19:11:39.028Z,5.61
2023-01-17T19:14:06.843Z,5.54
2023-01-17T19:16:39.045Z,5.49
2023-01-17T19:19:08.297Z,5.48
2023-01-17T19:21:35.160Z,5.49
2023-01-17T19:24:01.795Z,5.44
2023-01-17T19:26:29.929Z,5.41
2023-01-17T19:29:00.794Z,5.40
2023-01-17T19:31:30.541Z,5.35
2023-01-17T19:34:00.445Z,5.31
2023-01-17T19:36:31.593Z,5.25
2023-01-17T19:39:04.904Z,5.20
2023-01-17T19:41:34.729Z,5.18
2023-01-17T19:44:04.195Z,5.19
2023-01-17T19:46:31.620Z,5.13
2023-01-17T19:48:58.622Z,5.08
2023-01-17T19:51:26.877Z,5.01
2023-01-17T19:53:54.295Z,5.03
2023-01-17T19:56:26.056Z,4.96
2023-01-17T19:58:53.417Z,4.93
2023-01-17T20:01:25.219Z,4.91
2023-01-17T20:03:52.798Z,4.89
2023-01-17T20:06:23.327Z,4.84
2023-01-17T20:08:50.568Z,4.82
2023-01-17T20:11:20.879Z,4.77
2023-01-17T20:13:49.213Z,4.71
2023-01-17T20:16:19.244Z,4.69
2023-01-17T20:18:45.829Z,4.60
2023-01-17T20:21:15.232Z,4.57
2023-01-17T20:23:43.068Z,4.55
2023-01-17T20:26:11.200Z,4.53
2023-01-17T20:28:39.753Z,4.49
2023-01-17T20:31:15.743Z,4.47
2023-01-17T20:33:44.227Z,4.47
2023-01-17T20:36:15.466Z,4.48
2023-01-17T20:38:45.792Z,4.43
2023-01-17T20:41:49.364Z,4.42
2023-01-17T20:44:16.606Z,4.37
2023-01-17T20:46:43.576Z,4.35
2023-01-17T20:49:14.772Z,4.35
2023-01-17T20:51:41.870Z,4.38
2023-01-17T20:54:12.965Z,4.40
2023-01-17T20:56:40.359Z,4.38
2023-01-17T20:59:11.386Z,4.35
2023-01-17T21:01:38.754Z,4.25
2023-01-17T21:04:10.058Z,4.18
2023-01-17T21:06:39.726Z,4.20
2023-01-17T21:09:08.555Z,4.16
2023-01-17T21:11:35.911Z,4.12
2023-01-17T21:14:02.583Z,4.08
2023-01-17T21:16:29.250Z,4.03
2023-01-17T21:18:56.023Z,4.02
2023-01-17T21:21:25.472Z,3.92
2023-01-17T21:23:55.287Z,3.87
2023-01-17T21:26:25.659Z,3.78
2023-01-17T21:28:52.601Z,3.73
2023-01-17T21:31:24.820Z,3.67
2023-01-17T21:34:06.056Z,3.64
2023-01-17T21:36:35.830Z,3.57
2023-01-17T21:39:05.644Z,3.54
2023-01-17T21:41:35.232Z,3.49
2023-01-17T21:44:05.065Z,3.47
2023-01-17T21:46:31.856Z,3.43
2023-01-17T21:48:58.463Z,3.37
2023-01-17T21:51:45.385Z,3.38
2023-01-17T21:54:12.171Z,3.35
2023-01-17T21:56:57.509Z,3.33
2023-01-17T21:59:24.064Z,3.31
2023-01-17T22:01:51.048Z,3.29
2023-01-17T22:04:17.693Z,3.26
2023-01-17T22:06:44.272Z,3.25
2023-01-17T22:09:10.802Z,3.23
2023-01-17T22:11:37.425Z,3.22
2023-01-17T22:14:04.852Z,3.19
2023-01-17T22:16:31.558Z,3.16
2023-01-17T22:18:58.223Z,3.13
2023-01-17T22:21:28.191Z,3.16
2023-01-17T22:23:57.103Z,3.17
2023-01-17T22:26:26.693Z,3.16
2023-01-17T22:28:53.885Z,3.17
2023-01-17T22:31:25.939Z,3.16
2023-01-17T22:33:55.686Z,3.13
2023-01-17T22:36:23.024Z,3.11
2023-01-17T22:38:50.269Z,3.12
2023-01-17T22:41:20.222Z,3.10
2023-01-17T22:43:52.914Z,3.06
2023-01-17T22:46:22.441Z,3.09
2023-01-17T22:48:49.392Z,3.13
2023-01-17T22:51:17.984Z,3.09
2023-01-17T22:53:53.287Z,3.13
2023-01-17T22:56:38.119Z,3.19
2023-01-17T22:59:11.256Z,3.22
2023-01-17T23:01:40.603Z,3.27
2023-01-17T23:04:07.872Z,3.31
2023-01-17T23:06:37.272Z,3.34
2023-01-17T23:09:12.851Z,3.35
2023-01-17T23:11:45.010Z,3.36
2023-01-17T23:14:19.629Z,3.39
2023-01-17T23:17:08.645Z,3.44
2023-01-17T23:19:41.220Z,3.48
2023-01-17T23:22:16.657Z,3.51
2023-01-17T23:24:44.429Z,3.50
2023-01-17T23:27:32.061Z,3.54
2023-01-17T23:29:59.115Z,3.57
2023-01-17T23:32:25.911Z,3.62
2023-01-17T23:34:54.870Z,3.66
2023-01-17T23:37:21.506Z,3.69
2023-01-17T23:39:48.048Z,3.73
2023-01-17T23:42:33.881Z,3.75
2023-01-17T23:45:00.642Z,3.79
2023-01-17T23:47:27.186Z,3.80
2023-01-17T23:49:53.744Z,3.81
2023-01-17T23:52:20.283Z,3.85
2023-01-17T23:54:48.576Z,3.86
2023-01-17T23:57:15.158Z,3.90
2023-01-17T23:59:41.756Z,3.95
